sensor_id;sensor_type;location;lat;lon;timestamp;pressure;altitude;pressure_sealevel;temperature;humidity
78198;BME280;67472;51.554;7.812;2023-04-24T00:01:14;99199.94;;;11.47;100.00
78198;BME280;67472;51.554;7.812;2023-04-24T00:04:00;99196.50;;;11.38;100.00
78198;BME280;67472;51.554;7.812;2023-04-24T00:06:52;99196.81;;;11.51;100.00
78198;BME280;67472;51.554;7.812;2023-04-24T00:10:08;99203.59;;;11.54;100.00
78198;BME280;67472;51.554;7.812;2023-04-24T00:13:24;99201.59;;;11.56;100.00
78198;BME280;67472;51.554;7.812;2023-04-24T00:16:09;99199.09;;;11.62;100.00
78198;BME280;67472;51.554;7.812;2023-04-24T00:18:54;99192.63;;;11.65;100.00
78198;BME280;67472;51.554;7.812;2023-04-24T00:21:40;99200.78;;;11.47;100.00
78198;BME280;67472;51.554;7.812;2023-04-24T00:24:26;99201.97;;;11.37;100.00
78198;BME280;67472;51.554;7.812;2023-04-24T00:27:11;99205.94;;;11.24;100.00
78198;BME280;67472;51.554;7.812;2023-04-24T00:29:56;99204.28;;;11.23;100.00
78198;BME280;67472;51.554;7.812;2023-04-24T00:32:41;99197.22;;;11.08;100.00
78198;BME280;67472;51.554;7.812;2023-04-24T00:35:26;99200.84;;;11.07;100.00
78198;BME280;67472;51.554;7.812;2023-04-24T00:38:11;99208.28;;;11.11;100.00
78198;BME280;67472;51.554;7.812;2023-04-24T00:40:56;99198.03;;;11.08;100.00
78198;BME280;67472;51.554;7.812;2023-04-24T00:43:41;99204.16;;;11.01;100.00
78198;BME280;67472;51.554;7.812;2023-04-24T00:46:45;99198.22;;;10.99;100.00
78198;BME280;67472;51.554;7.812;2023-04-24T00:49:51;99195.88;;;11.04;100.00
78198;BME280;67472;51.554;7.812;2023-04-24T00:52:37;99202.50;;;10.92;100.00
78198;BME280;67472;51.554;7.812;2023-04-24T00:55:22;99195.06;;;10.79;100.00
78198;BME280;67472;51.554;7.812;2023-04-24T00:58:07;99199.34;;;10.72;100.00
78198;BME280;67472;51.554;7.812;2023-04-24T01:00:54;99194.91;;;10.72;100.00
78198;BME280;67472;51.554;7.812;2023-04-24T01:03:40;99195.88;;;10.63;100.00
78198;BME280;67472;51.554;7.812;2023-04-24T01:06:28;99196.53;;;10.65;100.00
78198;BME280;67472;51.554;7.812;2023-04-24T01:09:14;99194.91;;;10.64;100.00
78198;BME280;67472;51.554;7.812;2023-04-24T01:12:00;99196.53;;;10.57;100.00
78198;BME280;67472;51.554;7.812;2023-04-24T01:15:04;99204.63;;;10.56;100.00
78198;BME280;67472;51.554;7.812;2023-04-24T01:18:43;99201.16;;;10.55;100.00
78198;BME280;67472;51.554;7.812;2023-04-24T01:21:38;99202.63;;;10.58;100.00
78198;BME280;67472;51.554;7.812;2023-04-24T01:24:23;99202.97;;;10.55;100.00
78198;BME280;67472;51.554;7.812;2023-04-24T01:27:10;99193.75;;;10.67;100.00
78198;BME280;67472;51.554;7.812;2023-04-24T01:29:55;99198.38;;;10.65;100.00
78198;BME280;67472;51.554;7.812;2023-04-24T01:32:40;99190.28;;;10.66;100.00
78198;BME280;67472;51.554;7.812;2023-04-24T01:35:28;99191.09;;;10.59;100.00
78198;BME280;67472;51.554;7.812;2023-04-24T01:38:14;99193.88;;;10.65;100.00
78198;BME280;67472;51.554;7.812;2023-04-24T01:40:59;99193.56;;;10.60;100.00
78198;BME280;67472;51.554;7.812;2023-04-24T01:43:44;99198.53;;;10.63;100.00
78198;BME280;67472;51.554;7.812;2023-04-24T01:46:29;99190.91;;;10.60;100.00
78198;BME280;67472;51.554;7.812;2023-04-24T01:49:16;99195.03;;;10.55;100.00
78198;BME280;67472;51.554;7.812;2023-04-24T01:52:01;99199.81;;;10.59;100.00
78198;BME280;67472;51.554;7.812;2023-04-24T01:54:49;99197.88;;;10.61;100.00
78198;BME280;67472;51.554;7.812;2023-04-24T01:57:35;99197.03;;;10.61;100.00
78198;BME280;67472;51.554;7.812;2023-04-24T02:00:20;99196.38;;;10.67;100.00
78198;BME280;67472;51.554;7.812;2023-04-24T02:03:05;99201.34;;;10.86;100.00
78198;BME280;67472;51.554;7.812;2023-04-24T02:05:50;99193.91;;;10.73;100.00
78198;BME280;67472;51.554;7.812;2023-04-24T02:08:35;99196.88;;;10.87;100.00
78198;BME280;67472;51.554;7.812;2023-04-24T02:11:20;99190.94;;;10.85;100.00
78198;BME280;67472;51.554;7.812;2023-04-24T02:14:05;99189.78;;;10.95;100.00
78198;BME280;67472;51.554;7.812;2023-04-24T02:16:50;99191.63;;;11.03;100.00
78198;BME280;67472;51.554;7.812;2023-04-24T02:19:35;99183.34;;;10.98;100.00
78198;BME280;67472;51.554;7.812;2023-04-24T02:22:20;99195.06;;;11.03;100.00
78198;BME280;67472;51.554;7.812;2023-04-24T02:25:06;99190.13;;;11.08;100.00
78198;BME280;67472;51.554;7.812;2023-04-24T02:27:51;99193.41;;;11.18;100.00
78198;BME280;67472;51.554;7.812;2023-04-24T02:30:36;99194.38;;;11.17;100.00
78198;BME280;67472;51.554;7.812;2023-04-24T02:33:21;99197.72;;;11.11;100.00
78198;BME280;67472;51.554;7.812;2023-04-24T02:36:06;99199.84;;;11.24;100.00
78198;BME280;67472;51.554;7.812;2023-04-24T02:38:51;99201.31;;;11.18;100.00
78198;BME280;67472;51.554;7.812;2023-04-24T02:41:36;99209.41;;;11.25;100.00
78198;BME280;67472;51.554;7.812;2023-04-24T02:44:21;99203.31;;;11.16;100.00
78198;BME280;67472;51.554;7.812;2023-04-24T02:47:07;99212.41;;;11.22;100.00
78198;BME280;67472;51.554;7.812;2023-04-24T02:49:53;99207.44;;;11.19;100.00
78198;BME280;67472;51.554;7.812;2023-04-24T02:52:39;99213.41;;;11.05;100.00
78198;BME280;67472;51.554;7.812;2023-04-24T02:55:24;99196.06;;;10.86;100.00
78198;BME280;67472;51.554;7.812;2023-04-24T02:58:09;99167.47;;;10.98;100.00
78198;BME280;67472;51.554;7.812;2023-04-24T03:00:55;99173.78;;;10.97;100.00
78198;BME280;67472;51.554;7.812;2023-04-24T03:03:40;99170.81;;;11.00;100.00
78198;BME280;67472;51.554;7.812;2023-04-24T03:06:25;99169.81;;;10.93;100.00
78198;BME280;67472;51.554;7.812;2023-04-24T03:09:11;99171.28;;;10.95;100.00
78198;BME280;67472;51.554;7.812;2023-04-24T03:11:56;99169.81;;;10.85;100.00
78198;BME280;67472;51.554;7.812;2023-04-24T03:14:43;99170.81;;;10.84;100.00
78198;BME280;67472;51.554;7.812;2023-04-24T03:17:28;99182.69;;;10.71;100.00
78198;BME280;67472;51.554;7.812;2023-04-24T03:20:14;99178.72;;;10.67;100.00
78198;BME280;67472;51.554;7.812;2023-04-24T03:22:59;99186.97;;;10.56;100.00
78198;BME280;67472;51.554;7.812;2023-04-24T03:25:44;99186.47;;;10.45;100.00
78198;BME280;67472;51.554;7.812;2023-04-24T03:28:31;99194.53;;;10.43;100.00
78198;BME280;67472;51.554;7.812;2023-04-24T03:31:19;99199.94;;;10.26;100.00
78198;BME280;67472;51.554;7.812;2023-04-24T03:34:06;99210.16;;;10.20;100.00
78198;BME280;67472;51.554;7.812;2023-04-24T03:36:51;99194.63;;;10.17;100.00
78198;BME280;67472;51.554;7.812;2023-04-24T03:39:37;99213.06;;;10.09;100.00
78198;BME280;67472;51.554;7.812;2023-04-24T03:42:22;99214.84;;;10.01;100.00
78198;BME280;67472;51.554;7.812;2023-04-24T03:45:11;99223.31;;;9.87;100.00
78198;BME280;67472;51.554;7.812;2023-04-24T03:47:58;99225.28;;;9.85;100.00
78198;BME280;67472;51.554;7.812;2023-04-24T03:50:44;99228.66;;;9.95;100.00
78198;BME280;67472;51.554;7.812;2023-04-24T03:53:30;99235.53;;;9.88;100.00
78198;BME280;67472;51.554;7.812;2023-04-24T03:56:15;99254.41;;;9.75;100.00
78198;BME280;67472;51.554;7.812;2023-04-24T03:59:00;99247.50;;;9.74;100.00
78198;BME280;67472;51.554;7.812;2023-04-24T04:01:46;99244.56;;;9.77;100.00
78198;BME280;67472;51.554;7.812;2023-04-24T04:04:35;99237.00;;;9.82;100.00
78198;BME280;67472;51.554;7.812;2023-04-24T04:07:20;99232.19;;;9.78;100.00
78198;BME280;67472;51.554;7.812;2023-04-24T04:10:06;99238.94;;;9.72;100.00
78198;BME280;67472;51.554;7.812;2023-04-24T04:12:52;99243.19;;;9.73;100.00
78198;BME280;67472;51.554;7.812;2023-04-24T04:15:37;99250.03;;;9.58;100.00
78198;BME280;67472;51.554;7.812;2023-04-24T04:18:22;99255.81;;;9.61;100.00
78198;BME280;67472;51.554;7.812;2023-04-24T04:21:08;99259.59;;;9.59;100.00
78198;BME280;67472;51.554;7.812;2023-04-24T04:23:53;99258.41;;;9.53;100.00
78198;BME280;67472;51.554;7.812;2023-04-24T04:26:44;99258.09;;;9.56;100.00
78198;BME280;67472;51.554;7.812;2023-04-24T04:29:36;99260.75;;;9.56;100.00
78198;BME280;67472;51.554;7.812;2023-04-24T04:32:24;99262.44;;;9.65;100.00
78198;BME280;67472;51.554;7.812;2023-04-24T04:35:09;99266.28;;;9.71;100.00
78198;BME280;67472;51.554;7.812;2023-04-24T04:37:55;99264.97;;;9.75;100.00
78198;BME280;67472;51.554;7.812;2023-04-24T04:41:06;99255.63;;;9.81;100.00
78198;BME280;67472;51.554;7.812;2023-04-24T04:43:52;99248.50;;;9.81;100.00
78198;BME280;67472;51.554;7.812;2023-04-24T04:46:37;99256.03;;;9.68;100.00
78198;BME280;67472;51.554;7.812;2023-04-24T04:49:30;99254.03;;;9.62;100.00
78198;BME280;67472;51.554;7.812;2023-04-24T04:52:15;99258.38;;;9.71;100.00
78198;BME280;67472;51.554;7.812;2023-04-24T04:55:03;99257.69;;;9.69;100.00
78198;BME280;67472;51.554;7.812;2023-04-24T04:58:08;99262.81;;;9.71;100.00
78198;BME280;67472;51.554;7.812;2023-04-24T05:00:53;99265.47;;;9.79;100.00
78198;BME280;67472;51.554;7.812;2023-04-24T05:03:46;99262.06;;;9.86;100.00
78198;BME280;67472;51.554;7.812;2023-04-24T05:06:33;99257.94;;;9.84;100.00
78198;BME280;67472;51.554;7.812;2023-04-24T05:09:18;99259.69;;;10.01;100.00
78198;BME280;67472;51.554;7.812;2023-04-24T05:12:10;99258.84;;;10.00;100.00
78198;BME280;67472;51.554;7.812;2023-04-24T05:15:03;99247.47;;;10.00;100.00
78198;BME280;67472;51.554;7.812;2023-04-24T05:17:49;99252.88;;;9.98;100.00
78198;BME280;67472;51.554;7.812;2023-04-24T05:20:34;99253.41;;;10.02;100.00
78198;BME280;67472;51.554;7.812;2023-04-24T05:23:20;99250.97;;;10.08;100.00
78198;BME280;67472;51.554;7.812;2023-04-24T05:26:09;99235.63;;;10.04;100.00
78198;BME280;67472;51.554;7.812;2023-04-24T05:28:54;99248.84;;;10.12;100.00
78198;BME280;67472;51.554;7.812;2023-04-24T05:31:39;99247.97;;;10.03;100.00
78198;BME280;67472;51.554;7.812;2023-04-24T05:34:23;99247.81;;;10.05;100.00
78198;BME280;67472;51.554;7.812;2023-04-24T05:37:13;99258.00;;;10.00;100.00
78198;BME280;67472;51.554;7.812;2023-04-24T05:39:59;99258.28;;;9.89;100.00
78198;BME280;67472;51.554;7.812;2023-04-24T05:42:44;99264.13;;;10.00;100.00
78198;BME280;67472;51.554;7.812;2023-04-24T05:45:29;99263.78;;;9.95;100.00
78198;BME280;67472;51.554;7.812;2023-04-24T05:48:14;99262.41;;;10.17;100.00
78198;BME280;67472;51.554;7.812;2023-04-24T05:51:00;99266.56;;;10.28;100.00
78198;BME280;67472;51.554;7.812;2023-04-24T05:53:45;99264.09;;;10.26;100.00
78198;BME280;67472;51.554;7.812;2023-04-24T05:56:30;99260.16;;;10.30;100.00
78198;BME280;67472;51.554;7.812;2023-04-24T05:59:17;99259.66;;;10.35;100.00
78198;BME280;67472;51.554;7.812;2023-04-24T06:02:02;99272.16;;;10.25;100.00
78198;BME280;67472;51.554;7.812;2023-04-24T06:04:47;99264.28;;;10.33;100.00
78198;BME280;67472;51.554;7.812;2023-04-24T06:07:32;99266.56;;;10.28;100.00
78198;BME280;67472;51.554;7.812;2023-04-24T06:10:20;99259.28;;;10.21;100.00
78198;BME280;67472;51.554;7.812;2023-04-24T06:13:05;99263.25;;;10.26;100.00
78198;BME280;67472;51.554;7.812;2023-04-24T06:15:53;99275.47;;;10.18;100.00
78198;BME280;67472;51.554;7.812;2023-04-24T06:18:46;99269.03;;;10.21;100.00
78198;BME280;67472;51.554;7.812;2023-04-24T06:21:32;99272.34;;;10.23;100.00
78198;BME280;67472;51.554;7.812;2023-04-24T06:24:17;99277.34;;;10.08;100.00
78198;BME280;67472;51.554;7.812;2023-04-24T06:27:02;99273.22;;;10.06;100.00
78198;BME280;67472;51.554;7.812;2023-04-24T06:29:47;99284.94;;;10.11;100.00
78198;BME280;67472;51.554;7.812;2023-04-24T06:32:39;99293.13;;;10.00;100.00
78198;BME280;67472;51.554;7.812;2023-04-24T06:35:25;99297.78;;;10.06;100.00
78198;BME280;67472;51.554;7.812;2023-04-24T06:38:10;99292.72;;;10.13;100.00
78198;BME280;67472;51.554;7.812;2023-04-24T06:40:55;99293.13;;;10.00;100.00
78198;BME280;67472;51.554;7.812;2023-04-24T06:43:40;99286.47;;;10.14;100.00
78198;BME280;67472;51.554;7.812;2023-04-24T06:46:26;99287.34;;;10.31;100.00
78198;BME280;67472;51.554;7.812;2023-04-24T06:49:12;99286.38;;;10.32;100.00
78198;BME280;67472;51.554;7.812;2023-04-24T06:52:00;99273.56;;;10.45;100.00
78198;BME280;67472;51.554;7.812;2023-04-24T06:54:45;99273.03;;;10.33;100.00
78198;BME280;67472;51.554;7.812;2023-04-24T06:57:31;99278.16;;;10.35;100.00
78198;BME280;67472;51.554;7.812;2023-04-24T07:00:16;99282.56;;;10.26;100.00
78198;BME280;67472;51.554;7.812;2023-04-24T07:03:01;99280.88;;;10.17;100.00
78198;BME280;67472;51.554;7.812;2023-04-24T07:05:48;99289.94;;;10.14;100.00
78198;BME280;67472;51.554;7.812;2023-04-24T07:08:33;99271.75;;;10.11;100.00
78198;BME280;67472;51.554;7.812;2023-04-24T07:11:19;99288.81;;;10.25;100.00
78198;BME280;67472;51.554;7.812;2023-04-24T07:14:05;99283.59;;;10.07;100.00
78198;BME280;67472;51.554;7.812;2023-04-24T07:16:50;99280.06;;;10.25;100.00
78198;BME280;67472;51.554;7.812;2023-04-24T07:19:35;99265.78;;;10.35;100.00
78198;BME280;67472;51.554;7.812;2023-04-24T07:22:20;99269.69;;;10.73;100.00
78198;BME280;67472;51.554;7.812;2023-04-24T07:25:06;99278.91;;;10.77;100.00
78198;BME280;67472;51.554;7.812;2023-04-24T07:27:51;99275.66;;;10.99;100.00
78198;BME280;67472;51.554;7.812;2023-04-24T07:30:36;99286.50;;;10.80;100.00
78198;BME280;67472;51.554;7.812;2023-04-24T07:33:21;99300.22;;;10.75;100.00
78198;BME280;67472;51.554;7.812;2023-04-24T07:36:06;99306.31;;;10.68;100.00
78198;BME280;67472;51.554;7.812;2023-04-24T07:38:51;99309.13;;;10.74;100.00
78198;BME280;67472;51.554;7.812;2023-04-24T07:41:36;99319.31;;;10.61;100.00
78198;BME280;67472;51.554;7.812;2023-04-24T07:44:21;99314.66;;;10.47;100.00
78198;BME280;67472;51.554;7.812;2023-04-24T07:47:06;99314.88;;;10.62;100.00
78198;BME280;67472;51.554;7.812;2023-04-24T07:49:51;99316.97;;;11.08;100.00
78198;BME280;67472;51.554;7.812;2023-04-24T07:52:36;99308.66;;;10.95;100.00
78198;BME280;67472;51.554;7.812;2023-04-24T07:55:22;99297.91;;;10.81;100.00
78198;BME280;67472;51.554;7.812;2023-04-24T07:58:07;99304.34;;;10.86;100.00
78198;BME280;67472;51.554;7.812;2023-04-24T08:00:52;99299.91;;;10.95;100.00
78198;BME280;67472;51.554;7.812;2023-04-24T08:03:37;99302.53;;;10.87;100.00
78198;BME280;67472;51.554;7.812;2023-04-24T08:06:22;99311.41;;;10.69;100.00
78198;BME280;67472;51.554;7.812;2023-04-24T08:09:08;99313.22;;;10.69;100.00
78198;BME280;67472;51.554;7.812;2023-04-24T08:11:53;99307.47;;;10.73;100.00
78198;BME280;67472;51.554;7.812;2023-04-24T08:14:38;99303.88;;;10.99;100.00
78198;BME280;67472;51.554;7.812;2023-04-24T08:17:24;99306.22;;;11.42;100.00
78198;BME280;67472;51.554;7.812;2023-04-24T08:20:10;99307.38;;;11.56;100.00
78198;BME280;67472;51.554;7.812;2023-04-24T08:22:58;99301.78;;;11.34;100.00
78198;BME280;67472;51.554;7.812;2023-04-24T08:25:43;99301.75;;;11.10;100.00
78198;BME280;67472;51.554;7.812;2023-04-24T08:28:28;99312.13;;;10.80;100.00
78198;BME280;67472;51.554;7.812;2023-04-24T08:31:13;99320.50;;;10.67;100.00
78198;BME280;67472;51.554;7.812;2023-04-24T08:33:58;99328.66;;;10.48;100.00
78198;BME280;67472;51.554;7.812;2023-04-24T08:36:44;99338.44;;;10.21;100.00
78198;BME280;67472;51.554;7.812;2023-04-24T08:39:29;99344.63;;;10.30;100.00
78198;BME280;67472;51.554;7.812;2023-04-24T08:42:15;99337.50;;;10.31;100.00
78198;BME280;67472;51.554;7.812;2023-04-24T08:45:01;99334.91;;;10.39;100.00
78198;BME280;67472;51.554;7.812;2023-04-24T08:47:47;99333.56;;;10.76;100.00
78198;BME280;67472;51.554;7.812;2023-04-24T08:50:34;99333.34;;;10.62;100.00
78198;BME280;67472;51.554;7.812;2023-04-24T08:53:19;99329.97;;;10.44;100.00
78198;BME280;67472;51.554;7.812;2023-04-24T08:56:05;99329.97;;;10.44;100.00
78198;BME280;67472;51.554;7.812;2023-04-24T08:58:51;99332.84;;;10.25;100.00
78198;BME280;67472;51.554;7.812;2023-04-24T09:01:37;99349.09;;;10.12;100.00
78198;BME280;67472;51.554;7.812;2023-04-24T09:04:24;99376.84;;;9.98;100.00
78198;BME280;67472;51.554;7.812;2023-04-24T09:07:10;99385.59;;;9.73;100.00
78198;BME280;67472;51.554;7.812;2023-04-24T09:09:57;99394.34;;;9.56;100.00
78198;BME280;67472;51.554;7.812;2023-04-24T09:12:43;99403.06;;;9.74;100.00
78198;BME280;67472;51.554;7.812;2023-04-24T09:15:29;99402.47;;;9.80;100.00
78198;BME280;67472;51.554;7.812;2023-04-24T09:18:14;99399.84;;;9.62;100.00
78198;BME280;67472;51.554;7.812;2023-04-24T09:21:03;99402.19;;;9.48;100.00
78198;BME280;67472;51.554;7.812;2023-04-24T09:24:03;99405.44;;;9.42;100.00
78198;BME280;67472;51.554;7.812;2023-04-24T09:26:55;99390.97;;;9.28;100.00
78198;BME280;67472;51.554;7.812;2023-04-24T09:29:56;99392.63;;;9.47;100.00
78198;BME280;67472;51.554;7.812;2023-04-24T09:32:41;99400.88;;;9.52;100.00
78198;BME280;67472;51.554;7.812;2023-04-24T09:35:26;99411.53;;;9.42;100.00
78198;BME280;67472;51.554;7.812;2023-04-24T09:38:11;99426.50;;;9.42;100.00
78198;BME280;67472;51.554;7.812;2023-04-24T09:40:59;99439.63;;;9.34;100.00
78198;BME280;67472;51.554;7.812;2023-04-24T09:43:45;99437.91;;;9.15;100.00
78198;BME280;67472;51.554;7.812;2023-04-24T09:46:31;99442.34;;;9.15;100.00
78198;BME280;67472;51.554;7.812;2023-04-24T09:52:10;99462.78;;;9.30;100.00
78198;BME280;67472;51.554;7.812;2023-04-24T09:54:55;99472.19;;;9.33;100.00
78198;BME280;67472;51.554;7.812;2023-04-24T09:57:58;99476.22;;;9.37;100.00
78198;BME280;67472;51.554;7.812;2023-04-24T10:00:45;99466.00;;;9.24;100.00
78198;BME280;67472;51.554;7.812;2023-04-24T10:03:32;99482.75;;;9.33;100.00
78198;BME280;67472;51.554;7.812;2023-04-24T10:06:18;99492.38;;;9.24;100.00
78198;BME280;67472;51.554;7.812;2023-04-24T10:09:03;99495.38;;;9.29;100.00
78198;BME280;67472;51.554;7.812;2023-04-24T10:11:50;99520.75;;;9.30;100.00
78198;BME280;67472;51.554;7.812;2023-04-24T10:14:36;99524.34;;;9.29;100.00
78198;BME280;67472;51.554;7.812;2023-04-24T10:17:22;99540.88;;;9.31;100.00
78198;BME280;67472;51.554;7.812;2023-04-24T10:20:08;99546.66;;;9.35;100.00
78198;BME280;67472;51.554;7.812;2023-04-24T10:22:54;99543.97;;;9.17;100.00
78198;BME280;67472;51.554;7.812;2023-04-24T10:25:38;99555.13;;;9.29;100.00
78198;BME280;67472;51.554;7.812;2023-04-24T10:28:24;99567.72;;;9.35;100.00
78198;BME280;67472;51.554;7.812;2023-04-24T10:31:10;99583.66;;;9.43;100.00
78198;BME280;67472;51.554;7.812;2023-04-24T10:33:55;99591.56;;;9.43;100.00
78198;BME280;67472;51.554;7.812;2023-04-24T10:36:54;99596.50;;;9.55;100.00
78198;BME280;67472;51.554;7.812;2023-04-24T10:39:41;99603.13;;;9.59;100.00
78198;BME280;67472;51.554;7.812;2023-04-24T10:42:27;99604.53;;;9.27;100.00
78198;BME280;67472;51.554;7.812;2023-04-24T10:45:22;99614.78;;;9.30;100.00
78198;BME280;67472;51.554;7.812;2023-04-24T10:48:08;99628.03;;;9.11;100.00
78198;BME280;67472;51.554;7.812;2023-04-24T10:50:58;99622.66;;;9.02;100.00
78198;BME280;67472;51.554;7.812;2023-04-24T10:53:43;99639.84;;;8.97;100.00
78198;BME280;67472;51.554;7.812;2023-04-24T10:56:28;99654.28;;;8.93;100.00
78198;BME280;67472;51.554;7.812;2023-04-24T10:59:24;99655.50;;;8.89;100.00
78198;BME280;67472;51.554;7.812;2023-04-24T11:02:09;99690.88;;;8.77;100.00
78198;BME280;67472;51.554;7.812;2023-04-24T11:04:54;99698.22;;;8.83;100.00
78198;BME280;67472;51.554;7.812;2023-04-24T11:08:14;99713.84;;;8.94;100.00
78198;BME280;67472;51.554;7.812;2023-04-24T11:11:18;99716.91;;;8.89;100.00
78198;BME280;67472;51.554;7.812;2023-04-24T11:14:07;99725.53;;;8.82;100.00
78198;BME280;67472;51.554;7.812;2023-04-24T11:16:53;99728.72;;;8.76;100.00
78198;BME280;67472;51.554;7.812;2023-04-24T11:19:41;99721.22;;;8.71;100.00
78198;BME280;67472;51.554;7.812;2023-04-24T11:22:28;99743.13;;;8.81;100.00
78198;BME280;67472;51.554;7.812;2023-04-24T11:25:15;99742.56;;;8.78;100.00
78198;BME280;67472;51.554;7.812;2023-04-24T11:28:05;99754.75;;;8.88;100.00
78198;BME280;67472;51.554;7.812;2023-04-24T11:30:50;99764.88;;;8.93;100.00
78198;BME280;67472;51.554;7.812;2023-04-24T11:33:36;99771.41;;;8.79;100.00
78198;BME280;67472;51.554;7.812;2023-04-24T11:36:21;99764.75;;;8.85;100.00
78198;BME280;67472;51.554;7.812;2023-04-24T11:39:06;99780.53;;;8.75;100.00
78198;BME280;67472;51.554;7.812;2023-04-24T11:42:08;99794.78;;;8.82;100.00
78198;BME280;67472;51.554;7.812;2023-04-24T11:45:52;99788.28;;;8.86;100.00
78198;BME280;67472;51.554;7.812;2023-04-24T11:49:08;99800.63;;;8.95;100.00
78198;BME280;67472;51.554;7.812;2023-04-24T11:51:55;99806.47;;;9.18;100.00
78198;BME280;67472;51.554;7.812;2023-04-24T11:54:53;99804.22;;;9.33;100.00
78198;BME280;67472;51.554;7.812;2023-04-24T11:57:56;99805.47;;;9.29;100.00
78198;BME280;67472;51.554;7.812;2023-04-24T12:01:05;99820.72;;;9.44;100.00
78198;BME280;67472;51.554;7.812;2023-04-24T12:04:18;99818.38;;;9.32;100.00
78198;BME280;67472;51.554;7.812;2023-04-24T12:07:04;99831.00;;;9.19;100.00
78198;BME280;67472;51.554;7.812;2023-04-24T12:09:57;99830.88;;;9.11;100.00
78198;BME280;67472;51.554;7.812;2023-04-24T12:12:45;99841.13;;;9.42;100.00
78198;BME280;67472;51.554;7.812;2023-04-24T12:15:31;99846.97;;;9.46;100.00
78198;BME280;67472;51.554;7.812;2023-04-24T12:18:15;99852.50;;;9.33;100.00
78198;BME280;67472;51.554;7.812;2023-04-24T12:21:20;99843.88;;;9.41;100.00
78198;BME280;67472;51.554;7.812;2023-04-24T12:24:06;99837.50;;;9.43;100.00
78198;BME280;67472;51.554;7.812;2023-04-24T12:26:52;99841.69;;;9.36;100.00
78198;BME280;67472;51.554;7.812;2023-04-24T12:29:56;99837.66;;;9.42;100.00
78198;BME280;67472;51.554;7.812;2023-04-24T12:32:48;99838.06;;;9.47;100.00
78198;BME280;67472;51.554;7.812;2023-04-24T12:35:33;99850.41;;;9.46;100.00
78198;BME280;67472;51.554;7.812;2023-04-24T12:38:25;99850.16;;;9.30;100.00
78198;BME280;67472;51.554;7.812;2023-04-24T12:41:12;99845.28;;;9.35;100.00
78198;BME280;67472;51.554;7.812;2023-04-24T12:43:57;99854.72;;;9.38;100.00
78198;BME280;67472;51.554;7.812;2023-04-24T12:46:42;99858.06;;;9.30;100.00
78198;BME280;67472;51.554;7.812;2023-04-24T12:49:29;99859.97;;;9.38;100.00
78198;BME280;67472;51.554;7.812;2023-04-24T12:52:14;99870.41;;;9.39;100.00
78198;BME280;67472;51.554;7.812;2023-04-24T12:55:00;99865.25;;;9.19;100.00
78198;BME280;67472;51.554;7.812;2023-04-24T12:57:45;99872.72;;;9.23;100.00
78198;BME280;67472;51.554;7.812;2023-04-24T13:00:30;99863.59;;;9.37;100.00
78198;BME280;67472;51.554;7.812;2023-04-24T13:03:15;99862.19;;;9.52;100.00
78198;BME280;67472;51.554;7.812;2023-04-24T13:06:00;99861.06;;;9.83;100.00
78198;BME280;67472;51.554;7.812;2023-04-24T13:08:45;99851.13;;;10.14;100.00
78198;BME280;67472;51.554;7.812;2023-04-24T13:11:32;99839.78;;;10.41;100.00
78198;BME280;67472;51.554;7.812;2023-04-24T13:14:17;99824.31;;;10.46;100.00
78198;BME280;67472;51.554;7.812;2023-04-24T13:17:02;99822.84;;;10.34;100.00
78198;BME280;67472;51.554;7.812;2023-04-24T13:19:50;99814.84;;;10.26;100.00
78198;BME280;67472;51.554;7.812;2023-04-24T13:22:36;99816.53;;;10.07;100.00
78198;BME280;67472;51.554;7.812;2023-04-24T13:25:21;99809.38;;;9.90;100.00
78198;BME280;67472;51.554;7.812;2023-04-24T13:28:08;99802.84;;;9.94;100.00
78198;BME280;67472;51.554;7.812;2023-04-24T13:30:53;99806.50;;;9.84;100.00
78198;BME280;67472;51.554;7.812;2023-04-24T13:33:38;99810.22;;;9.91;100.00
78198;BME280;67472;51.554;7.812;2023-04-24T13:36:23;99823.00;;;9.95;100.00
78198;BME280;67472;51.554;7.812;2023-04-24T13:39:08;99822.00;;;9.96;100.00
78198;BME280;67472;51.554;7.812;2023-04-24T13:41:53;99807.66;;;9.72;100.00
78198;BME280;67472;51.554;7.812;2023-04-24T13:44:39;99816.88;;;9.95;100.00
78198;BME280;67472;51.554;7.812;2023-04-24T13:47:25;99819.56;;;10.22;100.00
78198;BME280;67472;51.554;7.812;2023-04-24T13:50:10;99813.59;;;10.74;100.00
78198;BME280;67472;51.554;7.812;2023-04-24T13:52:55;99810.06;;;11.01;100.00
78198;BME280;67472;51.554;7.812;2023-04-24T13:55:41;99806.72;;;10.82;100.00
78198;BME280;67472;51.554;7.812;2023-04-24T13:58:26;99790.38;;;10.51;100.00
78198;BME280;67472;51.554;7.812;2023-04-24T14:01:12;99814.13;;;10.51;100.00
78198;BME280;67472;51.554;7.812;2023-04-24T14:03:58;99812.13;;;10.45;100.00
78198;BME280;67472;51.554;7.812;2023-04-24T14:06:43;99813.78;;;10.36;100.00
78198;BME280;67472;51.554;7.812;2023-04-24T14:09:28;99812.34;;;10.24;100.00
78198;BME280;67472;51.554;7.812;2023-04-24T14:12:14;99804.31;;;10.16;100.00
78198;BME280;67472;51.554;7.812;2023-04-24T14:15:01;99816.63;;;10.25;100.00
78198;BME280;67472;51.554;7.812;2023-04-24T14:17:46;99816.41;;;10.18;100.00
78198;BME280;67472;51.554;7.812;2023-04-24T14:20:31;99804.34;;;10.06;100.00
78198;BME280;67472;51.554;7.812;2023-04-24T14:23:16;99799.09;;;9.97;100.00
78198;BME280;67472;51.554;7.812;2023-04-24T14:26:02;99800.22;;;9.94;100.00
78198;BME280;67472;51.554;7.812;2023-04-24T14:28:47;99798.94;;;9.98;100.00
78198;BME280;67472;51.554;7.812;2023-04-24T14:31:32;99797.69;;;10.02;100.00
78198;BME280;67472;51.554;7.812;2023-04-24T14:34:17;99797.94;;;10.09;100.00
78198;BME280;67472;51.554;7.812;2023-04-24T14:37:03;99790.84;;;10.09;100.00
78198;BME280;67472;51.554;7.812;2023-04-24T14:39:48;99801.63;;;10.26;100.00
78198;BME280;67472;51.554;7.812;2023-04-24T14:42:34;99798.50;;;10.40;100.00
78198;BME280;67472;51.554;7.812;2023-04-24T14:45:19;99800.75;;;10.62;100.00